Reno, NV (89501)

1:40 PM PDT on July 25, 2016 (GMT -0700)
UNR Campus, LMR Roof | | Change Station

Elev 4570 ft 39.54 °N, 119.81 °W | Updated 1 minute ago

Partly Cloudy
Partly Cloudy
92.3 °F
Feels Like 88 °F
N
3.4
Wind Variable Wind from West

Today
High -- | Low -- °F
--% Chance of Precip.
Yesterday
High -- | Low -- °F
Precip. -- in
Pressure 29.93 in
Visibility 10.0 miles
Clouds Few 5000 ft
Heat Index 88 °F
Dew Point 26 °F
Humidity 9%
Rainfall 0.00 in
Snow Depth Not available.
5:53 AM 8:17 PM
Waning Gibbous, 62% visible
METAR KRNO 251955Z VRB05KT 10SM FEW050 32/M07 A3012 RMK AO2 SLP134 FU FEW050 FU ALQDS T03171072
Pressure 29.93 in
Visibility 10.0 miles
Clouds Few 5000 ft
Heat Index 88 °F
Dew Point 26 °F
Humidity 9%
Rainfall 0.00 in
Snow Depth Not available.
5:53 AM 8:17 PM
Waning Gibbous, 62% visible
METAR KRNO 251955Z VRB05KT 10SM FEW050 32/M07 A3012 RMK AO2 SLP134 FU FEW050 FU ALQDS T03171072

10-Day Weather Forecast

Almanac

Astronomy

Jul. 25, 2016 Rise Set
Actual Time
Civil Twilight
Nautical Twilight
Astronomical Twilight
Moon
Length of Visible Light
Length of Day
Tomorrow will be .
, % of the Moon is Illuminated

Today's Extremes

State Highs State Lows

Community

WunderPhotos

Upload Photos

1,927,415 photos uploaded!

WunderBlog® & News

Nearby

Air Quality

  Air Quality AQ Index Pollutant
Not available.

Snow Depth

Station Depth Elevation

Earthquake Activity

City Distance Mag. Time & Date
Minimum magnitude displayed is 2.5.

Coastal Water Temperatures

Place Temperature

Stations

Nearby Weather Stations

Station Location Temp. Windchill Dew Point Humidity Wind Precip. Elev Updated Type
                   

Watches & Warnings

There are currently no watches in effect.